Time;durP1;ratioP1;P1;durP2;ratioP2;P2;SDS_P1;SDS_P2;PMS_P1;PMS_P2;Temp;Humidity;BMP_temperature;BMP_pressure;BME280_temperature;BME280_humidity;BME280_pressure;Samples;Min_cycle;Max_cycle;Signal;HPM_P1;HPM_P2
2023/12/17 00:01:30;;;;;;;2.90;1.90;;;13.50;99.90;;;;;;10370949;28;20278;-80
2023/12/17 00:06:35;;;;;;;3.70;2.47;;;13.40;99.90;;;;;;10369026;28;20208;-80
2023/12/17 00:11:40;;;;;;;4.23;2.57;;;13.50;99.90;;;;;;10368808;28;20243;-80
2023/12/17 00:16:43;;;;;;;5.13;3.43;;;13.50;99.90;;;;;;10364828;28;20251;-80
2023/12/17 00:21:45;;;;;;;3.83;2.40;;;13.60;99.90;;;;;;10367008;28;20436;-80
2023/12/17 00:26:47;;;;;;;3.70;2.40;;;13.50;99.90;;;;;;10373721;28;20678;-80
2023/12/17 00:31:50;;;;;;;1.90;1.60;;;13.60;99.90;;;;;;10377784;28;20635;-80
2023/12/17 00:37:01;;;;;;;2.97;1.97;;;13.40;99.90;;;;;;10373886;28;20250;-80
2023/12/17 00:42:04;;;;;;;12.50;3.90;;;13.10;99.90;;;;;;10371379;28;20232;-80
2023/12/17 00:47:06;;;;;;;8.77;3.53;;;13.10;99.90;;;;;;10369727;28;20322;-80
2023/12/17 00:52:09;;;;;;;4.30;2.90;;;12.80;99.90;;;;;;10372501;28;20228;-80
2023/12/17 00:57:12;;;;;;;5.43;2.43;;;13.40;99.90;;;;;;10370760;28;20251;-80
2023/12/17 01:02:15;;;;;;;4.53;2.50;;;13.60;99.90;;;;;;10371346;28;20293;-80
2023/12/17 01:07:17;;;;;;;4.83;2.07;;;13.60;99.90;;;;;;10371483;28;20282;-80
2023/12/17 01:12:20;;;;;;;14.37;5.37;;;13.50;99.90;;;;;;10370110;28;20228;-80
2023/12/17 01:17:22;;;;;;;3.60;2.20;;;13.30;99.90;;;;;;10370981;28;20863;-79
2023/12/17 01:22:25;;;;;;;5.07;3.47;;;13.40;99.90;;;;;;10370587;28;20310;-80
2023/12/17 01:27:27;;;;;;;8.97;3.43;;;13.60;99.90;;;;;;10370419;28;20232;-80
2023/12/17 01:32:30;;;;;;;10.63;5.60;;;13.70;99.90;;;;;;10368995;28;20235;-80
2023/12/17 01:37:32;;;;;;;2.70;2.13;;;13.30;99.90;;;;;;10367823;28;20375;-80
2023/12/17 01:42:35;;;;;;;4.20;2.60;;;13.30;99.90;;;;;;10371143;28;20290;-80
2023/12/17 01:47:37;;;;;;;1.83;1.30;;;13.50;99.90;;;;;;10381126;28;20283;-80
2023/12/17 01:52:40;;;;;;;3.27;2.07;;;13.50;99.90;;;;;;10371567;28;20294;-80
2023/12/17 01:57:43;;;;;;;3.00;1.87;;;13.70;99.90;;;;;;10384309;28;20255;-80
2023/12/17 02:02:47;;;;;;;5.13;2.40;;;13.80;99.90;;;;;;10373513;28;20289;-80
2023/12/17 02:07:50;;;;;;;4.53;3.17;;;13.80;99.90;;;;;;10368177;28;20228;-80
2023/12/17 02:12:52;;;;;;;4.33;2.17;;;14.00;99.90;;;;;;10372887;28;20254;-80
2023/12/17 02:17:55;;;;;;;4.57;3.00;;;13.80;99.90;;;;;;10379292;28;20251;-80
2023/12/17 02:23:02;;;;;;;4.67;2.03;;;13.70;99.90;;;;;;10389836;28;20269;-80
2023/12/17 02:28:04;;;;;;;4.80;2.97;;;13.60;99.90;;;;;;10360943;28;20220;-81
2023/12/17 02:33:07;;;;;;;5.37;2.90;;;13.60;99.90;;;;;;10370297;28;20649;-80
2023/12/17 02:38:10;;;;;;;3.13;1.90;;;13.90;99.90;;;;;;10386785;28;20258;-80
2023/12/17 02:43:12;;;;;;;9.07;4.40;;;13.70;99.90;;;;;;10410527;28;20685;-80
2023/12/17 02:48:15;;;;;;;8.43;3.33;;;14.00;99.90;;;;;;10409346;28;20282;-80
2023/12/17 02:53:17;;;;;;;14.43;5.43;;;13.70;99.90;;;;;;10399085;28;20360;-80
2023/12/17 02:58:20;;;;;;;5.10;2.77;;;13.60;99.90;;;;;;10408895;28;20247;-80
2023/12/17 03:03:23;;;;;;;3.37;2.07;;;13.80;99.90;;;;;;10391188;28;20296;-81
2023/12/17 03:08:25;;;;;;;8.53;4.53;;;14.00;99.90;;;;;;10409720;28;20664;-80
2023/12/17 03:13:29;;;;;;;3.50;2.60;;;14.00;99.90;;;;;;10402782;28;20638;-80
2023/12/17 03:18:32;;;;;;;2.57;1.30;;;13.80;99.90;;;;;;10408830;28;20247;-81
2023/12/17 03:23:35;;;;;;;3.20;2.80;;;13.80;99.90;;;;;;10408185;28;20241;-81
2023/12/17 03:28:37;;;;;;;8.13;3.80;;;13.80;99.90;;;;;;10409085;28;20247;-80
2023/12/17 03:33:41;;;;;;;4.30;2.70;;;14.00;99.90;;;;;;10383848;28;20282;-81
2023/12/17 03:38:45;;;;;;;6.80;3.20;;;13.90;99.90;;;;;;10401814;28;20774;-80
2023/12/17 03:43:52;;;;;;;8.93;5.13;;;13.70;99.90;;;;;;10397870;28;20223;-80
2023/12/17 03:48:55;;;;;;;4.30;3.63;;;13.60;99.90;;;;;;10408222;28;20313;-81
2023/12/17 03:53:57;;;;;;;12.07;4.80;;;13.70;99.90;;;;;;10407863;28;20622;-80
2023/12/17 03:59:00;;;;;;;4.17;2.07;;;13.70;99.90;;;;;;10406746;28;20277;-80
2023/12/17 04:04:03;;;;;;;4.73;2.07;;;13.80;99.90;;;;;;10407968;28;20235;-81
2023/12/17 04:09:05;;;;;;;6.40;4.00;;;14.00;99.90;;;;;;10380776;28;20282;-81
2023/12/17 04:14:07;;;;;;;6.37;4.10;;;13.50;99.90;;;;;;10387297;28;20610;-81
2023/12/17 04:19:10;;;;;;;4.40;3.17;;;13.20;99.90;;;;;;10407344;28;20251;-81
2023/12/17 04:24:13;;;;;;;4.33;2.57;;;13.50;99.90;;;;;;10406173;28;20679;-81
2023/12/17 04:29:15;;;;;;;5.83;2.50;;;13.50;99.90;;;;;;10407283;28;20991;-81
2023/12/17 04:34:18;;;;;;;5.50;2.93;;;13.50;99.90;;;;;;10407668;28;20312;-81
2023/12/17 04:39:21;;;;;;;4.50;2.53;;;13.60;99.90;;;;;;10407651;28;20313;-80
2023/12/17 04:44:23;;;;;;;2.17;1.97;;;13.60;99.90;;;;;;10407098;28;20230;-80
2023/12/17 04:49:26;;;;;;;5.67;3.77;;;13.30;99.90;;;;;;10393799;28;20255;-80
2023/12/17 04:54:28;;;;;;;10.47;5.70;;;13.30;99.90;;;;;;10407550;28;20297;-81
2023/12/17 04:59:31;;;;;;;8.47;4.20;;;13.20;99.90;;;;;;10406681;28;20297;-81
2023/12/17 05:04:33;;;;;;;5.80;3.40;;;13.40;99.90;;;;;;10402936;28;20227;-80
2023/12/17 05:09:36;;;;;;;4.27;3.77;;;13.40;99.90;;;;;;10384967;28;20235;-80
2023/12/17 05:14:38;;;;;;;6.07;3.93;;;13.60;99.90;;;;;;10414132;28;20614;-81
2023/12/17 05:19:41;;;;;;;4.50;3.33;;;13.30;99.90;;;;;;10386169;28;20284;-81
2023/12/17 05:24:43;;;;;;;7.03;4.60;;;13.50;99.90;;;;;;10389205;28;20226;-81
2023/12/17 05:29:46;;;;;;;3.33;2.23;;;13.30;99.90;;;;;;10410178;28;20679;-81
2023/12/17 05:34:49;;;;;;;6.57;3.97;;;13.30;99.90;;;;;;10397991;28;20301;-80
2023/12/17 05:39:51;;;;;;;5.53;4.23;;;12.90;99.90;;;;;;10397159;28;20251;-81
2023/12/17 05:44:54;;;;;;;3.73;2.80;;;13.10;99.90;;;;;;10412557;28;20282;-81
2023/12/17 05:49:56;;;;;;;5.43;3.80;;;13.50;99.90;;;;;;10411186;28;20255;-81
2023/12/17 05:54:59;;;;;;;9.70;6.93;;;13.40;99.90;;;;;;10413122;28;20239;-80
2023/12/17 06:00:01;;;;;;;5.67;3.43;;;13.30;99.90;;;;;;10412653;28;20672;-80
2023/12/17 06:05:07;;;;;;;2.50;1.90;;;13.40;99.90;;;;;;10411107;28;20645;-80
2023/12/17 06:10:09;;;;;;;4.80;2.73;;;13.30;99.90;;;;;;10412918;28;20278;-80
2023/12/17 06:15:12;;;;;;;4.90;4.40;;;13.60;99.90;;;;;;10395618;28;20289;-80
2023/12/17 06:20:15;;;;;;;10.47;6.27;;;13.40;99.90;;;;;;10411230;28;20365;-80
2023/12/17 06:25:17;;;;;;;3.87;2.73;;;13.30;99.90;;;;;;10411519;28;20301;-81
2023/12/17 06:30:20;;;;;;;11.87;5.97;;;13.50;99.90;;;;;;10410734;28;20232;-81
2023/12/17 06:35:22;;;;;;;6.67;4.70;;;13.40;99.90;;;;;;10412009;28;20597;-81
2023/12/17 06:40:25;;;;;;;3.53;2.37;;;13.30;99.90;;;;;;10411866;28;20251;-81
2023/12/17 06:45:28;;;;;;;3.23;2.43;;;13.20;99.90;;;;;;10359977;28;20281;-80
2023/12/17 06:50:31;;;;;;;2.23;1.47;;;13.80;99.90;;;;;;10409838;28;20728;-81
2023/12/17 06:55:34;;;;;;;4.80;3.90;;;13.70;99.90;;;;;;10411402;28;20246;-80
2023/12/17 07:00:36;;;;;;;3.17;2.47;;;13.60;99.90;;;;;;10375484;28;20255;-81
2023/12/17 07:05:39;;;;;;;6.40;3.17;;;13.80;99.90;;;;;;10411282;28;20301;-81
2023/12/17 07:10:41;;;;;;;5.00;3.33;;;13.80;99.90;;;;;;10396521;28;20223;-81
2023/12/17 07:15:44;;;;;;;3.50;2.77;;;13.80;99.90;;;;;;10409548;28;20231;-81
2023/12/17 07:20:47;;;;;;;7.17;5.57;;;13.50;99.90;;;;;;10410292;28;20243;-81
2023/12/17 07:25:50;;;;;;;8.30;4.10;;;13.50;99.90;;;;;;10410128;28;20790;-81
2023/12/17 07:30:53;;;;;;;2.37;2.13;;;13.50;99.90;;;;;;10407446;28;20638;-81
2023/12/17 07:35:56;;;;;;;3.77;3.13;;;13.70;99.90;;;;;;10409669;28;20232;-81
2023/12/17 07:40:58;;;;;;;3.10;2.47;;;13.90;99.90;;;;;;10372007;28;20242;-81
2023/12/17 07:46:01;;;;;;;6.27;3.23;;;13.80;99.90;;;;;;10370710;28;20231;-81
2023/12/17 07:51:03;;;;;;;5.10;3.97;;;13.70;99.90;;;;;;10349126;28;20220;-81
2023/12/17 07:56:09;;;;;;;5.23;4.30;;;13.60;99.90;;;;;;10370135;28;20227;-81
2023/12/17 08:01:11;;;;;;;5.77;3.93;;;13.70;99.90;;;;;;10408151;28;20230;-81
2023/12/17 08:06:14;;;;;;;3.27;2.70;;;13.60;99.90;;;;;;10408984;28;20289;-81
2023/12/17 08:11:17;;;;;;;6.43;5.00;;;13.80;99.90;;;;;;10334275;28;20287;-81
2023/12/17 08:16:19;;;;;;;4.33;3.50;;;13.80;99.90;;;;;;10327194;28;20306;-81
2023/12/17 08:21:22;;;;;;;2.37;1.27;;;13.30;99.90;;;;;;10385112;28;20609;-81
2023/12/17 08:26:24;;;;;;;3.50;2.30;;;13.50;99.90;;;;;;10342468;28;20229;-81
2023/12/17 08:31:27;;;;;;;3.00;2.13;;;13.80;99.90;;;;;;10327219;28;20240;-81
2023/12/17 08:36:29;;;;;;;7.33;4.20;;;13.90;99.90;;;;;;10327233;28;20263;-80
2023/12/17 08:41:33;;;;;;;3.60;2.63;;;14.00;99.90;;;;;;10343411;28;20235;-80
2023/12/17 08:46:35;;;;;;;5.10;2.23;;;14.00;99.90;;;;;;10342340;28;20726;-81
2023/12/17 08:51:38;;;;;;;3.50;2.47;;;14.00;99.90;;;;;;10334840;28;20299;-81
2023/12/17 08:56:41;;;;;;;3.13;2.63;;;14.10;99.90;;;;;;10334750;28;20307;-80
2023/12/17 09:01:44;;;;;;;4.23;2.60;;;14.10;99.90;;;;;;10355675;28;20236;-80
2023/12/17 09:06:47;;;;;;;3.50;1.77;;;14.20;99.90;;;;;;10334181;28;20236;-80
2023/12/17 09:11:50;;;;;;;3.93;2.33;;;14.40;99.90;;;;;;10333956;28;20236;-80
2023/12/17 09:16:52;;;;;;;4.13;2.47;;;14.40;99.90;;;;;;10341348;28;20251;-80
2023/12/17 09:21:54;;;;;;;7.53;2.33;;;14.30;99.90;;;;;;10410320;28;20249;-81
2023/12/17 09:26:57;;;;;;;3.97;2.57;;;14.40;99.90;;;;;;10414542;28;20251;-81
2023/12/17 09:32:00;;;;;;;2.83;2.03;;;14.20;99.90;;;;;;10345592;28;20685;-81
2023/12/17 09:37:06;;;;;;;3.80;2.33;;;14.30;99.90;;;;;;10333212;28;20252;-80
2023/12/17 09:42:09;;;;;;;4.87;3.10;;;14.40;99.90;;;;;;10370965;28;20738;-80
2023/12/17 09:47:12;;;;;;;3.67;2.77;;;14.30;99.90;;;;;;10395478;28;20260;-80
2023/12/17 09:52:19;;;;;;;12.53;5.80;;;14.10;99.90;;;;;;10366798;28;20228;-80
2023/12/17 09:57:21;;;;;;;4.57;2.20;;;14.10;99.90;;;;;;10358177;28;20239;-80
2023/12/17 10:02:25;;;;;;;3.10;2.77;;;14.00;99.90;;;;;;10381253;28;20734;-79
2023/12/17 10:07:41;;;;;;;3.80;3.00;;;14.10;99.90;;;;;;10385534;28;20259;-80
2023/12/17 10:12:44;;;;;;;5.87;3.83;;;14.20;99.90;;;;;;10347068;28;20236;-80
2023/12/17 10:17:50;;;;;;;5.70;4.10;;;14.20;99.90;;;;;;10371601;28;20274;-80
2023/12/17 10:23:00;;;;;;;2.93;1.57;;;14.20;99.90;;;;;;10370538;28;20219;-80
2023/12/17 10:28:03;;;;;;;2.43;1.70;;;14.40;99.90;;;;;;10406865;28;20290;-80
2023/12/17 10:33:09;;;;;;;2.70;1.60;;;14.50;99.90;;;;;;10411026;28;20243;-80
2023/12/17 10:38:14;;;;;;;5.33;2.70;;;14.60;99.90;;;;;;10391169;28;20256;-79
2023/12/17 10:43:17;;;;;;;3.33;2.60;;;14.60;99.90;;;;;;10369280;28;20232;-79
2023/12/17 10:48:20;;;;;;;5.17;2.93;;;14.40;99.90;;;;;;10347701;28;20282;-79
2023/12/17 10:53:23;;;;;;;3.57;1.70;;;14.40;99.90;;;;;;10349327;28;20296;-79
2023/12/17 10:58:26;;;;;;;4.53;2.10;;;14.40;99.90;;;;;;10366194;28;20696;-79
2023/12/17 11:03:29;;;;;;;3.83;3.33;;;14.40;99.90;;;;;;10332260;28;20231;-80
2023/12/17 11:08:32;;;;;;;7.00;4.57;;;14.20;99.90;;;;;;10350780;28;20772;-80
2023/12/17 11:13:35;;;;;;;7.97;5.90;;;14.10;99.90;;;;;;10345911;28;20666;-80
2023/12/17 11:18:43;;;;;;;4.50;3.10;;;14.00;99.90;;;;;;10373516;28;20246;-80
2023/12/17 11:23:47;;;;;;;5.40;3.93;;;14.00;99.90;;;;;;10408734;28;20230;-80
2023/12/17 11:28:52;;;;;;;5.43;3.73;;;13.80;99.90;;;;;;10409334;28;20235;-80
2023/12/17 11:33:55;;;;;;;4.27;3.30;;;14.00;99.90;;;;;;10379258;28;20240;-80
2023/12/17 11:38:58;;;;;;;6.77;5.13;;;13.90;99.90;;;;;;10367806;28;20697;-80
2023/12/17 11:44:01;;;;;;;4.80;3.30;;;14.00;99.90;;;;;;10368870;28;20232;-80
2023/12/17 11:49:04;;;;;;;2.77;1.97;;;13.90;99.90;;;;;;10366789;28;20267;-80
2023/12/17 11:54:06;;;;;;;3.00;2.07;;;13.80;99.90;;;;;;10365219;28;20223;-80
2023/12/17 11:59:09;;;;;;;3.60;2.90;;;13.90;99.90;;;;;;10366296;28;20259;-81
2023/12/17 12:04:13;;;;;;;2.40;2.10;;;14.00;99.90;;;;;;10399347;28;20231;-80
2023/12/17 12:09:19;;;;;;;3.13;1.80;;;14.00;99.90;;;;;;10383008;28;20244;-81
2023/12/17 12:14:22;;;;;;;5.87;2.40;;;14.10;99.90;;;;;;10361141;28;20721;-80
2023/12/17 12:19:24;;;;;;;2.70;2.07;;;14.10;99.90;;;;;;10354382;28;20282;-80
2023/12/17 12:24:36;;;;;;;2.93;1.90;;;14.20;99.90;;;;;;10356615;28;20901;-80
2023/12/17 12:29:38;;;;;;;3.13;2.47;;;14.10;99.90;;;;;;10333540;28;20287;-80
2023/12/17 12:34:45;;;;;;;2.90;1.83;;;14.20;99.90;;;;;;10327532;28;20232;-80
2023/12/17 12:39:48;;;;;;;3.53;2.90;;;14.30;99.90;;;;;;10367210;28;20251;-80
2023/12/17 12:45:05;;;;;;;2.77;1.77;;;14.10;99.90;;;;;;10357766;28;20670;-80
2023/12/17 12:50:09;;;;;;;2.93;2.30;;;14.00;99.90;;;;;;10354067;28;20263;-80
2023/12/17 12:55:12;;;;;;;4.57;3.10;;;13.90;99.90;;;;;;10362650;28;20228;-80
2023/12/17 13:00:16;;;;;;;5.33;3.03;;;14.10;99.90;;;;;;10352141;28;20318;-80
2023/12/17 13:05:22;;;;;;;6.23;4.63;;;14.20;99.90;;;;;;10358037;28;20278;-79
2023/12/17 13:10:25;;;;;;;1.80;1.57;;;14.10;99.90;;;;;;10366044;28;20294;-80
2023/12/17 13:15:27;;;;;;;2.97;2.37;;;13.90;99.90;;;;;;10351881;28;20704;-80
2023/12/17 13:20:33;;;;;;;5.83;4.23;;;14.10;99.90;;;;;;10350776;28;20307;-81
2023/12/17 13:25:36;;;;;;;7.10;5.97;;;14.00;99.90;;;;;;10347576;28;20232;-80
2023/12/17 13:30:38;;;;;;;5.43;4.63;;;14.00;99.90;;;;;;10341833;28;20236;-81
2023/12/17 13:35:41;;;;;;;3.77;2.73;;;13.80;99.90;;;;;;10366293;28;20236;-80
2023/12/17 13:40:43;;;;;;;3.50;2.70;;;13.90;99.90;;;;;;10351654;28;20280;-82
2023/12/17 13:45:46;;;;;;;3.53;2.83;;;14.00;99.90;;;;;;10367147;28;20235;-80
2023/12/17 13:50:49;;;;;;;11.57;7.50;;;13.80;99.90;;;;;;10359517;28;20240;-79
2023/12/17 13:55:51;;;;;;;11.10;5.53;;;13.30;99.90;;;;;;10395113;28;20235;-80
2023/12/17 14:00:54;;;;;;;6.57;4.23;;;12.60;99.90;;;;;;10411552;28;20255;-80
2023/12/17 14:05:57;;;;;;;8.17;5.83;;;12.90;99.90;;;;;;10413209;28;20227;-80
2023/12/17 14:10:59;;;;;;;7.80;3.57;;;13.20;99.90;;;;;;10412332;28;20235;-80
2023/12/17 14:16:02;;;;;;;5.23;3.83;;;13.30;99.90;;;;;;10376326;28;20298;-80
2023/12/17 14:21:06;;;;;;;5.93;4.07;;;13.60;99.90;;;;;;10371546;28;20330;-80
2023/12/17 14:26:09;;;;;;;4.37;3.23;;;13.40;99.90;;;;;;10371217;28;20301;-80
2023/12/17 14:31:13;;;;;;;7.63;5.13;;;13.40;99.90;;;;;;10370788;28;20243;-80
2023/12/17 14:36:15;;;;;;;3.40;2.50;;;13.50;99.90;;;;;;10370415;28;20305;-80
2023/12/17 14:41:19;;;;;;;3.93;2.33;;;13.60;99.90;;;;;;10370175;28;20259;-80
2023/12/17 14:46:21;;;;;;;5.77;4.23;;;13.50;99.90;;;;;;10369312;28;20350;-80
2023/12/17 14:51:24;;;;;;;5.50;4.03;;;13.60;99.90;;;;;;10370231;28;20236;-80
2023/12/17 14:56:26;;;;;;;5.10;3.80;;;13.40;99.90;;;;;;10369965;28;20630;-80
2023/12/17 15:01:30;;;;;;;2.70;2.43;;;13.70;99.90;;;;;;10369336;28;20259;-80
2023/12/17 15:06:37;;;;;;;5.70;3.13;;;13.60;99.90;;;;;;10369739;28;20224;-80
2023/12/17 15:11:39;;;;;;;7.27;5.50;;;13.60;99.90;;;;;;10369578;28;20294;-80
2023/12/17 15:16:42;;;;;;;5.83;5.07;;;13.40;99.90;;;;;;10368717;28;20759;-80
2023/12/17 15:21:45;;;;;;;5.57;2.40;;;13.20;99.90;;;;;;10367598;28;20317;-80
2023/12/17 15:26:49;;;;;;;3.50;2.50;;;13.30;99.90;;;;;;10368644;28;20622;-80
2023/12/17 15:31:51;;;;;;;7.20;3.17;;;13.40;99.90;;;;;;10368147;28;20259;-80
2023/12/17 15:36:55;;;;;;;6.77;4.43;;;13.60;99.90;;;;;;10379159;28;20254;-82
2023/12/17 15:41:58;;;;;;;9.73;5.30;;;13.60;99.90;;;;;;10407397;28;20637;-81
2023/12/17 15:47:01;;;;;;;12.97;10.90;;;13.40;99.90;;;;;;10399571;28;20251;-80
2023/12/17 15:52:04;;;;;;;9.77;6.37;;;11.50;99.90;;;;;;10407548;28;20748;-80
2023/12/17 15:57:06;;;;;;;6.63;4.07;;;10.60;99.90;;;;;;10373185;28;20262;-81
2023/12/17 16:02:09;;;;;;;7.97;5.37;;;11.50;99.90;;;;;;10366336;28;20263;-81
2023/12/17 16:07:12;;;;;;;9.07;5.50;;;11.80;99.90;;;;;;10368118;28;20239;-81
2023/12/17 16:12:15;;;;;;;8.17;5.83;;;12.10;99.90;;;;;;10370153;28;20889;-81
2023/12/17 16:17:18;;;;;;;6.43;4.93;;;12.70;99.90;;;;;;10373990;28;20678;-81
2023/12/17 16:22:20;;;;;;;6.37;4.13;;;13.00;99.90;;;;;;10325250;28;20660;-81
2023/12/17 16:27:22;;;;;;;2.67;1.93;;;13.20;99.90;;;;;;10338403;28;20233;-80
2023/12/17 16:32:25;;;;;;;4.13;3.27;;;13.60;99.90;;;;;;10346110;28;20239;-80
2023/12/17 16:37:27;;;;;;;2.07;1.70;;;13.60;99.90;;;;;;10382567;28;20204;-81
2023/12/17 16:42:31;;;;;;;6.10;3.90;;;13.90;99.90;;;;;;10366769;28;20282;-81
2023/12/17 16:47:34;;;;;;;5.33;3.07;;;14.00;99.90;;;;;;10357512;28;20241;-81
2023/12/17 16:52:38;;;;;;;4.17;2.90;;;13.90;99.90;;;;;;10365427;28;20846;-81
2023/12/17 16:57:40;;;;;;;5.27;3.90;;;13.80;99.90;;;;;;10363775;28;20228;-82
2023/12/17 17:02:43;;;;;;;4.77;3.57;;;14.10;99.90;;;;;;10366826;28;20264;-81
2023/12/17 17:07:47;;;;;;;3.70;3.17;;;13.90;99.90;;;;;;10369438;28;20681;-81
2023/12/17 17:12:52;;;;;;;3.87;2.73;;;13.70;99.90;;;;;;10374075;28;20236;-81
2023/12/17 17:17:54;;;;;;;8.73;5.77;;;13.70;99.90;;;;;;10373415;28;20680;-81
2023/12/17 17:22:57;;;;;;;10.33;7.13;;;13.80;99.90;;;;;;10377656;28;20252;-81
2023/12/17 17:27:59;;;;;;;3.07;1.60;;;13.60;99.90;;;;;;10364839;28;20612;-81
2023/12/17 17:33:02;;;;;;;5.30;4.03;;;14.40;99.90;;;;;;10367859;28;20306;-80
2023/12/17 17:38:04;;;;;;;6.80;4.70;;;14.40;99.90;;;;;;10373334;28;20236;-81
2023/12/17 17:43:07;;;;;;;5.67;3.67;;;14.40;99.90;;;;;;10373133;28;20359;-80
2023/12/17 17:48:09;;;;;;;2.17;2.00;;;14.10;99.90;;;;;;10371222;28;20255;-80
2023/12/17 17:53:14;;;;;;;7.00;4.93;;;13.80;99.90;;;;;;10359970;28;20619;-80
2023/12/17 17:58:17;;;;;;;3.23;2.93;;;13.50;99.90;;;;;;10354275;28;20645;-80
2023/12/17 18:03:19;;;;;;;14.93;10.17;;;13.00;99.90;;;;;;10366122;28;20276;-81
2023/12/17 18:08:22;;;;;;;12.97;9.23;;;12.40;99.90;;;;;;10331281;28;20263;-81
2023/12/17 18:13:26;;;;;;;9.73;6.13;;;11.80;99.90;;;;;;10398130;28;20231;-81
2023/12/17 18:18:28;;;;;;;8.83;6.53;;;11.80;99.90;;;;;;10372643;28;20228;-81
2023/12/17 18:23:31;;;;;;;13.53;8.60;;;11.70;99.90;;;;;;10403798;28;20232;-81
2023/12/17 18:28:33;;;;;;;13.17;9.57;;;11.90;99.90;;;;;;10338843;28;20232;-81
2023/12/17 18:33:37;;;;;;;13.20;10.87;;;12.00;99.90;;;;;;10376982;28;20237;-81
2023/12/17 18:38:44;;;;;;;13.07;10.00;;;9.30;99.90;;;;;;10368556;28;20701;-81
2023/12/17 18:43:47;;;;;;;16.07;10.33;;;7.80;99.90;;;;;;10383710;28;20224;-81
2023/12/17 18:48:51;;;;;;;15.50;11.47;;;7.00;99.90;;;;;;10368948;28;20319;-83
2023/12/17 18:53:54;;;;;;;18.30;11.27;;;6.50;99.90;;;;;;10351799;28;20743;-82
2023/12/17 18:58:57;;;;;;;20.37;13.20;;;6.10;99.90;;;;;;10337387;28;20249;-82
2023/12/17 19:03:59;;;;;;;13.43;9.77;;;6.90;99.90;;;;;;10353072;28;20384;-82
2023/12/17 19:09:04;;;;;;;9.37;7.30;;;7.90;99.90;;;;;;10357890;28;20814;-82
2023/12/17 19:14:07;;;;;;;9.53;6.60;;;9.10;99.90;;;;;;10328527;28;20228;-83
2023/12/17 19:19:09;;;;;;;10.40;5.07;;;10.10;99.90;;;;;;10340957;28;20648;-82
2023/12/17 19:24:16;;;;;;;8.07;6.37;;;10.60;99.90;;;;;;10331490;28;20244;-82
2023/12/17 19:29:19;;;;;;;10.20;5.70;;;11.00;99.90;;;;;;10342323;28;20291;-82
2023/12/17 19:34:24;;;;;;;13.20;7.07;;;11.60;99.90;;;;;;10333815;28;20232;-82
2023/12/17 19:39:26;;;;;;;8.87;6.13;;;11.80;99.90;;;;;;10350088;28;20640;-83
2023/12/17 19:44:29;;;;;;;7.83;6.30;;;12.40;99.90;;;;;;10332412;28;20240;-83
2023/12/17 19:49:32;;;;;;;11.30;6.57;;;12.40;99.90;;;;;;10387092;28;20264;-82
2023/12/17 19:54:38;;;;;;;9.87;3.87;;;12.60;99.90;;;;;;10375007;28;20564;-83
2023/12/17 19:59:41;;;;;;;6.07;4.50;;;12.60;99.90;;;;;;10338516;28;20245;-82
2023/12/17 20:04:43;;;;;;;9.57;5.70;;;13.00;99.90;;;;;;10336836;28;20287;-82
2023/12/17 20:09:46;;;;;;;9.37;5.50;;;13.20;99.90;;;;;;10338141;28;20587;-82
2023/12/17 20:14:49;;;;;;;6.77;4.73;;;13.20;99.90;;;;;;10342105;28;20633;-82
2023/12/17 20:19:51;;;;;;;12.63;7.83;;;13.30;99.90;;;;;;10364200;28;20279;-82
2023/12/17 20:24:57;;;;;;;6.23;4.70;;;12.50;99.90;;;;;;10352296;28;20228;-82
2023/12/17 20:30:00;;;;;;;10.00;6.93;;;12.90;99.90;;;;;;10368130;28;20675;-81
2023/12/17 20:35:04;;;;;;;9.13;6.53;;;13.10;99.90;;;;;;10353815;28;20243;-82
2023/12/17 20:40:06;;;;;;;9.67;5.93;;;13.10;99.90;;;;;;10388303;28;20291;-82
2023/12/17 20:45:09;;;;;;;12.10;6.70;;;13.50;99.90;;;;;;10380953;28;20669;-82
2023/12/17 20:50:12;;;;;;;8.87;7.00;;;13.20;99.90;;;;;;10375431;28;20263;-82
2023/12/17 20:55:15;;;;;;;9.53;5.80;;;13.30;99.90;;;;;;10377022;28;20552;-82
2023/12/17 21:00:19;;;;;;;8.03;5.20;;;13.20;99.90;;;;;;10376510;28;20247;-82
2023/12/17 21:05:21;;;;;;;7.27;6.20;;;13.30;99.90;;;;;;10376281;28;20232;-82
2023/12/17 21:10:24;;;;;;;9.27;6.33;;;13.40;99.90;;;;;;10363846;28;20236;-83
2023/12/17 21:15:27;;;;;;;10.87;6.40;;;13.10;99.90;;;;;;10335298;28;20232;-83
2023/12/17 21:20:31;;;;;;;9.47;6.50;;;12.90;99.90;;;;;;10373376;28;20282;-83
2023/12/17 21:25:33;;;;;;;8.10;5.87;;;12.80;99.90;;;;;;10352479;28;20193;-83
2023/12/17 21:30:35;;;;;;;8.53;6.77;;;12.90;99.90;;;;;;10370532;28;20724;-83
2023/12/17 21:35:39;;;;;;;11.93;6.93;;;12.80;99.90;;;;;;10336646;28;20205;-83
2023/12/17 21:40:41;;;;;;;9.00;6.03;;;12.80;99.90;;;;;;10363666;28;20233;-83
2023/12/17 21:45:44;;;;;;;7.63;5.43;;;12.90;99.90;;;;;;10399136;28;20605;-83
2023/12/17 21:50:46;;;;;;;6.20;4.80;;;12.70;99.90;;;;;;10393856;28;20319;-83
2023/12/17 21:55:50;;;;;;;6.10;2.97;;;12.80;99.90;;;;;;10410134;28;20200;-83
2023/12/17 22:00:52;;;;;;;7.00;4.57;;;12.70;99.90;;;;;;10386849;28;20236;-87
2023/12/17 22:05:55;;;;;;;8.67;5.57;;;12.90;99.90;;;;;;10407976;28;20205;-81
2023/12/17 22:10:58;;;;;;;5.90;4.37;;;13.40;99.90;;;;;;10380888;28;20213;-83
2023/12/17 22:16:00;;;;;;;8.53;6.23;;;13.70;99.90;;;;;;10401173;28;20189;-83
2023/12/17 22:21:03;;;;;;;7.70;5.20;;;13.90;99.90;;;;;;10396474;28;20229;-84
2023/12/17 22:26:05;;;;;;;5.40;4.37;;;13.60;99.90;;;;;;10413833;28;20223;-82
2023/12/17 22:31:07;;;;;;;7.67;4.90;;;13.80;99.90;;;;;;10416463;28;20196;-82
2023/12/17 22:36:10;;;;;;;5.57;3.43;;;14.10;99.90;;;;;;10426696;28;20220;-82
2023/12/17 22:41:13;;;;;;;7.53;5.13;;;14.10;99.90;;;;;;10417736;28;20208;-83
2023/12/17 22:46:19;;;;;;;7.07;5.30;;;14.20;99.90;;;;;;10425708;28;20212;-83
2023/12/17 22:51:21;;;;;;;4.77;2.73;;;14.00;99.90;;;;;;10403384;28;20189;-84
2023/12/17 22:56:24;;;;;;;7.20;4.07;;;13.80;99.90;;;;;;10421120;28;20177;-83
2023/12/17 23:01:27;;;;;;;4.17;2.57;;;13.90;99.90;;;;;;10398281;28;20213;-84
2023/12/17 23:06:32;;;;;;;4.53;3.77;;;14.00;99.90;;;;;;10410508;28;20193;-83
2023/12/17 23:11:35;;;;;;;5.83;2.97;;;13.80;99.90;;;;;;10424375;28;20180;-83
2023/12/17 23:16:37;;;;;;;6.03;3.17;;;14.10;99.90;;;;;;10453071;28;20485;-83
2023/12/17 23:21:40;;;;;;;5.93;3.17;;;14.10;99.90;;;;;;10423853;28;20228;-83
2023/12/17 23:26:43;;;;;;;5.27;3.30;;;13.80;99.90;;;;;;10386825;28;20196;-82
2023/12/17 23:31:46;;;;;;;5.80;3.93;;;14.20;99.90;;;;;;10381384;28;20204;-83
2023/12/17 23:36:49;;;;;;;10.57;5.13;;;14.10;99.90;;;;;;10387053;28;20200;-83
2023/12/17 23:41:51;;;;;;;4.57;3.03;;;13.70;99.90;;;;;;10382061;28;20560;-83
2023/12/17 23:46:54;;;;;;;5.30;3.60;;;14.00;99.90;;;;;;10382088;28;20651;-82
2023/12/17 23:51:56;;;;;;;6.10;3.73;;;14.00;99.90;;;;;;10393443;28;20200;-82
2023/12/17 23:56:59;;;;;;;3.93;2.83;;;13.90;99.90;;;;;;10421850;28;20200;-82
